Morehead City, NC (28557)

2:56 PM EDT on August 04, 2015 (GMT -0400)
MoreheadCityWeather.Com | | Change Station
CLOSE
Current Station
Personal Weather Station
Location: Morehead City, NC
Elevation: 10 ft
Nearby Weather Stations

Elev 10 ft 34.73 °N, 76.75 °W | Updated 4 seconds ago

Mostly Cloudy
Mostly Cloudy
83.1 °F
Feels Like 90 °F
N
5.8
Wind Variable Wind from SSW
Gusts 7.7 mph

Today
High -- | Low -- °F
--% Chance of Precip.
Yesterday
High -- | Low -- °F
Precip. -- in
6:19 AM 8:06 PM
Waning Gibbous, 75% visible
Pressure 30.01 in
Visibility 10.0 miles
Clouds Scattered Clouds 2400 ft
Mostly Cloudy 3900 ft
Overcast 4700 ft
Heat Index 90 °F
Dew Point 74 °F
Humidity 75%
Rainfall 0.00 in
Snow Depth Not available.
UV 3 out of 12
Pollen 1.30 out of 12
Air Quality Not available.
Flu Activity Not available.
SPECI KMRH 041851Z AUTO 19010G25KT 10SM -RA SCT024 BKN039 OVC047 27/23 A3001 RMK AO2 PK WND 19026/1839 RAB36 P0000 T02670233 TSNO

More Conditions Fewer Conditions

Pressure 30.01 in
Visibility 10.0 miles
Clouds Scattered Clouds 2400 ft
Mostly Cloudy 3900 ft
Overcast 4700 ft
Heat Index 90 °F
Dew Point 74 °F
Humidity 75%
Rainfall 0.00 in
Snow Depth Not available.
UV 3 out of 12
Pollen 1.30 out of 12
Air Quality Not available.
Flu Activity Not available.
SPECI KMRH 041851Z AUTO 19010G25KT 10SM -RA SCT024 BKN039 OVC047 27/23 A3001 RMK AO2 PK WND 19026/1839 RAB36 P0000 T02670233 TSNO

More Conditions Fewer Conditions

10-Day Weather Forecast

×

Almanac

Astronomy

Aug. 04, 2015 Rise Set
Actual Time
Civil Twilight
Nautical Twilight
Astronomical Twilight
Moon
Length of Visible Light
Length of Day
Tomorrow will be .
, % of the Moon is Illuminated

Today's Extremes

State Highs State Lows

Community

WunderPhotos

Upload Photos

1,843,937 photos uploaded!

WunderBlogs® & News

Nearby

Air Quality

  Air Quality AQ Index Pollutant
Not available.

Snow Depth

Station Depth Elevation

Earthquake Activity

City Distance Mag. Time & Date
Minimum magnitude displayed is 2.5.

Coastal Water Temperatures

Place Temperature

Stations

Nearby Weather Stations

Station Location Temp. Windchill Dew Point Humidity Wind Precip. Elev Updated Type